• Join FlightAware (Why Join?)
  • Login
  • US Flag 
05:38PM EST


 

Airport Tracker/Info


-or-


 

Live Flight TrackerFlight Track Log ✈ SWD9 ✈ 28-Jul-2014 ✈ KFRM - 0D8

Flight Track Log - Related Links

Times and Time Zones

All times are in EDT time to prevent confusion due to time zone crossing. See the SWD9 flight status page for this flight to view local times or setup timezone preferences in your user account.

Time Position Orientation Groundspeed Altitude Reporting Facility
EDT Latitude Longitude Course Direction KTS MPH feet Rate Location/Type
05:47PM 43.6856 -94.5008 293° West 154 177 4,300  Level Minneapolis Center
05:48PM 43.7033 -94.5528 295° West 150 173 6,100 1,680 Climbing Minneapolis Center
05:49PM 43.7183 -94.6064 291° West 150 173 7,800 1,680 Climbing Minneapolis Center
05:50PM 43.7314 -94.6622 288° West 150 173 9,600 1,500 Climbing Minneapolis Center
05:51PM 43.7481 -94.7222 291° West 159 183 11,000 1,500 Climbing Minneapolis Center
05:52PM 43.7433 -94.8110 293° West  Level FlightAware Approximate
05:52PM 43.7653 -94.7836 291° West 167 192 12,800  Level Minneapolis Center
05:53PM 43.7831 -94.8547 289° West 166 191 14,900 1,740 Climbing Minneapolis Center
05:54PM 43.7978 -94.9078 291° West 154 177 16,500 1,320 Climbing Minneapolis Center
05:55PM 43.8114 -94.9597 290° West 149 171 17,700 1,200 Climbing Minneapolis Center
05:56PM 43.8239 -95.0117 288° West 145 167 19,000 1,080 Climbing Minneapolis Center
05:57PM 43.8381 -95.0622 291° West 143 165 20,000 480 Climbing Minneapolis Center
05:59PM 43.8547 -95.1250 290° West 186 214 20,100  Climbing Minneapolis Center
06:00PM 43.8775 -95.2139 290° West 203 234 20,100  Level Minneapolis Center
06:01PM 43.8967 -95.2875 290° West 206 237 20,100  Level Minneapolis Center
06:02PM 43.9161 -95.3636 290° West 208 239 20,100  Level Minneapolis Center
06:03PM 43.9356 -95.4383 290° West 208 239 20,100  Level Minneapolis Center
06:04PM 43.9547 -95.5139 289° West 207 238 20,100 -60 Level Minneapolis Center
06:05PM 43.9778 -95.6033 290° West 207 238 20,000 -60 Descending Minneapolis Center
06:06PM 43.9969 -95.6781 290° West 206 237 20,000  Level Minneapolis Center
06:07PM 44.0158 -95.7528 289° West 207 238 20,100  Climbing Minneapolis Center
06:08PM 44.0347 -95.8275 289° West 206 237 20,000 -60 Descending Minneapolis Center
06:09PM 44.0536 -95.9017 290° West 205 236 20,000  Level Minneapolis Center
06:10PM 44.0722 -95.9756 289° West 204 235 20,000  Level Minneapolis Center
06:11PM 44.0906 -96.0497 289° West 203 234 20,100  Climbing Minneapolis Center
06:12PM 44.1139 -96.1417 289° West 203 234 20,000 -60 Descending Minneapolis Center
06:13PM 44.1319 -96.2144 289° West 203 234 20,000  Level Minneapolis Center
06:14PM 44.1506 -96.2906 289° West 203 234 20,100  Climbing Minneapolis Center
06:15PM 44.1692 -96.3653 289° West 203 234 20,000 -60 Descending Minneapolis Center
06:16PM 44.1878 -96.4397 289° West 203 234 20,000  Level Minneapolis Center
06:17PM 44.2058 -96.5136 289° West 202 232 20,000  Level Minneapolis Center
06:18PM 44.2239 -96.5872 289° West 202 232 20,000  Level Minneapolis Center
06:19PM 44.2422 -96.6617 289° West 202 232 20,000  Level Minneapolis Center
06:20PM 44.2636 -96.7511 288° West 202 232 20,100  Climbing Minneapolis Center
06:21PM 44.2819 -96.8253 289° West 203 234 20,000 -60 Descending Minneapolis Center
06:22PM 44.2997 -96.8992 289° West 202 232 20,000  Level Minneapolis Center
06:23PM 44.3175 -96.9733 289° West 202 232 20,100  Climbing Minneapolis Center
06:24PM 44.3356 -97.0481 289° West 203 234 20,100 -60 Level Minneapolis Center
06:25PM 44.3533 -97.1225 288° West 203 234 20,000  Descending Minneapolis Center
06:26PM 44.3744 -97.2114 288° West 202 232 20,100  Climbing Minneapolis Center
06:27PM 44.3919 -97.2858 288° West 202 232 20,000  Descending Minneapolis Center
06:29PM 44.4097 -97.3600 289° West 202 232 20,100  Climbing Minneapolis Center
06:30PM 44.4269 -97.4336 288° West 201 231 20,100 -60 Level Minneapolis Center
06:31PM 44.4444 -97.5075 288° West 201 231 20,000  Descending Minneapolis Center
06:32PM 44.4653 -97.5958 288° West 200 230 20,100  Climbing Minneapolis Center
06:33PM 44.4825 -97.6700 288° West 201 231 20,000 -60 Descending Minneapolis Center
06:34PM 44.4997 -97.7444 288° West 201 231 20,000  Level Minneapolis Center
06:35PM 44.5169 -97.8189 288° West 201 231 20,000  Level Minneapolis Center
06:36PM 44.5344 -97.8939 288° West 202 232 20,000  Level Minneapolis Center
06:37PM 44.5519 -97.9686 288° West 202 232 20,000  Level Minneapolis Center
06:38PM 44.5722 -98.0586 288° West 202 232 20,000  Level Minneapolis Center
06:39PM 44.5894 -98.1339 288° West 203 234 20,000  Level Minneapolis Center
06:40PM 44.6067 -98.2094 288° West 203 234 20,100  Climbing Minneapolis Center
06:41PM 44.6239 -98.2856 288° West 204 235 20,000  Descending Minneapolis Center
06:42PM 44.6439 -98.3742 288° West 204 235 20,100  Climbing Minneapolis Center
06:43PM 44.6600 -98.4450 288° West 205 236 20,000 -240 Descending Minneapolis Center
06:44PM 44.6775 -98.5228 288° West 214 246 19,700 -540 Descending Minneapolis Center
06:45PM 44.6964 -98.6064 288° West 228 262 19,000 -780 Descending Minneapolis Center
06:46PM 44.7153 -98.6925 287° West 228 262 18,100 -960 Descending Minneapolis Center
06:47PM 44.7392 -98.7961 288° West 229 264 17,100 -960 Descending Minneapolis Center
06:48PM 44.7586 -98.8847 287° West 232 267 16,200 -960 Descending Minneapolis Center
06:49PM 44.7775 -98.9722 287° West 233 268 15,200 -1,020 Descending Minneapolis Center
06:50PM 44.7958 -99.0597 286° West 233 268 14,200 -1,080 Descending Minneapolis Center
06:51PM 44.8147 -99.1472 287° West 233 268 13,000 -1,320 Descending Minneapolis Center
06:52PM 44.8394 -99.2528 288° West 234 269 11,500 -1,320 Descending Minneapolis Center
06:53PM 44.8578 -99.3400 287° West 234 269 10,300 -1,020 Descending Minneapolis Center
06:54PM 44.8747 -99.4225 286° West 230 265 9,400 -780 Descending Minneapolis Center
06:55PM 44.8894 -99.4911 287° West 205 236 8,800 -660 Descending Minneapolis Center
06:56PM 44.9028 -99.5583 286° West 188 216 8,100 -720 Descending Minneapolis Center
06:58PM 44.9154 -99.6370 283° West  Level FlightAware Approximate
07:05PM 44.9833 -99.9500 286° West  Level FlightAware Approximate
07:06PM 44.9866 -99.9529 North  Level Estimated
07:07PM 44.9833 -99.9500 286° West  Level FlightAware Approximate
07:08PM 44.9866 -99.9529 North  Level Estimated
07:09PM 44.9833 -99.9500 286° West  Level FlightAware Approximate
07:10PM 44.9866 -99.9529 North  Level Estimated
07:11PM 44.9833 -99.9500 286° West  Level FlightAware Approximate
07:12PM 44.9866 -99.9529 North  Level Estimated
07:13PM 44.9833 -99.9500 286° West  Level FlightAware Approximate
07:14PM 44.9866 -99.9529 North  Level Estimated
07:15PM 44.9833 -99.9500 286° West  Level FlightAware Approximate
07:16PM 44.9866 -99.9529 North  Level Estimated
07:17PM 44.9833 -99.9500 286° West  Level FlightAware Approximate
07:18PM 44.9866 -99.9529 North  Level Estimated